Eems Servant — PBTI — position and weather

sailwx.info

Track history (hours):
 
Tides and Currents Weather Stations Pressure Air Temp Water Temp Dewpoint Dewpoint Depression Visibility Wind Speed Wind Dir Waves Ship Positions

Eems Servant

Last reported at 2017-Dec-15 04:39 UTC. Time now 2017-Dec-17 10:05 UTC.
Position N 61°51' E 004°24'.

Length 87 m; draft 4.4 m.

Type: Cargo ship. MMSI: 246236000.

Date/timePositionNaut miles runAvg speedWind from/ knotsBaromVisibWave heightAir tempDewpointWater temp
2017-Dec-15 04:39N 61°51' E 004°24'1 8.4
2017-Dec-15 04:30N 61°53' E 004°25'4 8.3
2017-Dec-15 04:00N 61°56' E 004°29'13 8.5
2017-Dec-15 02:30N 62°07' E 004°44'13 8.6
2017-Dec-15 01:00N 62°18' E 004°59'4 8.5
2017-Dec-15 00:30N 62°21' E 005°05'51 8.5
2017-Dec-14 18:30N 62°60' E 006°18'4 7.6
2017-Dec-14 17:59N 63°02' E 006°24'4 8.0
2017-Dec-14 17:30N 63°04' E 006°32'4 8.1
2017-Dec-14 17:00N 63°05' E 006°41'4 8.3
2017-Dec-14 16:30N 63°07' E 006°49'4 8.6
2017-Dec-14 16:00N 63°08' E 006°58'9 8.5
2017-Dec-14 15:00N 63°11' E 007°16'4 8.7
2017-Dec-14 14:30N 63°13' E 007°25'4 8.6
2017-Dec-14 14:00N 63°15' E 007°33'4 8.7
2017-Dec-14 13:30N 63°13' E 007°42'4 7.2
2017-Dec-14 13:00N 63°10' E 007°43'5 9.1
2017-Dec-14 12:30N 63°05' E 007°41'5 9.1
2017-Dec-14 12:00N 63°01' E 007°44'4 8.3
2017-Dec-14 11:29N 62°58' E 007°51'5 9.1
2017-Dec-14 11:00N 62°59' E 008°00'5 9.2
2017-Dec-14 10:30N 62°56' E 008°07'4 9.0
2017-Dec-14 10:00N 62°51' E 008°09'5 8.9
2017-Dec-14 09:29N 62°48' E 008°16'5 9.2
2017-Dec-14 09:00N 62°45' E 008°24'4 8.8
2017-Dec-14 08:30N 62°43' E 008°31'2 3.3
2017-Dec-14 07:59N 62°41' E 008°33'0 0.0
2017-Dec-14 07:29N 62°41' E 008°33'0 0.0
2017-Dec-14 06:59N 62°41' E 008°33'0 0.0
2017-Dec-14 06:29N 62°41' E 008°33'0 0.0
2017-Dec-14 05:59N 62°41' E 008°33'0 0.0
2017-Dec-14 05:29N 62°41' E 008°33'0 0.0
2017-Dec-14 04:53N 62°41' E 008°33'0 0.0
2017-Dec-14 04:29N 62°41' E 008°33'0 0.0
2017-Dec-14 03:59N 62°41' E 008°33'0 0.0
2017-Dec-14 03:29N 62°41' E 008°33'0 0.0
2017-Dec-14 02:59N 62°41' E 008°33'0 0.0
2017-Dec-14 02:26N 62°41' E 008°33'0 0.0
2017-Dec-14 01:59N 62°41' E 008°33'0 0.0
2017-Dec-14 01:29N 62°41' E 008°33'0 0.0
2017-Dec-14 00:59N 62°41' E 008°33'0 0.0
2017-Dec-14 00:29N 62°41' E 008°33'0 0.0
2017-Dec-13 23:59N 62°41' E 008°33'0 0.0
2017-Dec-13 23:29N 62°41' E 008°33'0 0.0
2017-Dec-13 22:59N 62°41' E 008°33'0 0.0
2017-Dec-13 22:29N 62°41' E 008°33'0 0.0
2017-Dec-13 21:59N 62°41' E 008°33'0 0.0
2017-Dec-13 21:29N 62°41' E 008°33'0 0.0
2017-Dec-13 20:59N 62°41' E 008°33'0 0.0
2017-Dec-13 20:29N 62°41' E 008°33'0 0.0
2017-Dec-13 19:59N 62°41' E 008°33'0 0.0
2017-Dec-13 19:29N 62°41' E 008°33'0 0.0
2017-Dec-13 18:59N 62°41' E 008°33'0 0.0
2017-Dec-13 18:29N 62°41' E 008°33'0 0.0
2017-Dec-13 17:59N 62°41' E 008°33'0 0.0
2017-Dec-13 17:29N 62°41' E 008°33'0 0.0
2017-Dec-13 16:59N 62°41' E 008°33'0 0.0
2017-Dec-13 16:29N 62°41' E 008°33'0 0.0
2017-Dec-13 15:59N 62°41' E 008°33'0 0.0
2017-Dec-13 15:29N 62°41' E 008°33'0 0.0
2017-Dec-13 14:59N 62°41' E 008°33'0 0.0
2017-Dec-13 14:29N 62°41' E 008°33'0 0.0
2017-Dec-13 13:59N 62°41' E 008°33'0 0.0
2017-Dec-13 13:29N 62°41' E 008°33'0 0.0
2017-Dec-13 12:59N 62°41' E 008°33'0 0.3
2017-Dec-13 12:30N 62°41' E 008°33'4 7.2
2017-Dec-13 12:00N 62°44' E 008°29'5 9.2
2017-Dec-13 11:30N 62°47' E 008°21'5 9.1
2017-Dec-13 11:00N 62°49' E 008°12'5 9.2
2017-Dec-13 10:30N 62°53' E 008°08'4 8.9
2017-Dec-13 10:00N 62°57' E 008°04'4 8.4
2017-Dec-13 09:30N 62°58' E 007°55'4 8.4
2017-Dec-13 09:00N 62°59' E 007°46'5 9.1
2017-Dec-13 08:30N 63°03' E 007°41'5 9.3
2017-Dec-13 08:00N 63°07' E 007°41'4 8.9
2017-Dec-13 07:30N 63°11' E 007°45'3 6.4
2017-Dec-13 07:00N 63°14' E 007°41'4 7.2
2017-Dec-13 06:30N 63°15' E 007°33'4 8.1
2017-Dec-13 06:00N 63°13' E 007°25'4 8.4
2017-Dec-13 05:29N 63°11' E 007°16'4 8.9
2017-Dec-13 05:00N 63°10' E 007°07'4 8.8
2017-Dec-13 04:30N 63°08' E 006°58'4 8.7
2017-Dec-13 04:00N 63°07' E 006°49'4 8.3
2017-Dec-13 03:30N 63°05' E 006°41'4 8.5
2017-Dec-13 03:00N 63°04' E 006°32'4 8.3
2017-Dec-13 02:29N 63°02' E 006°23'4 8.1
2017-Dec-13 02:00N 62°59' E 006°17'4 8.0
2017-Dec-13 01:30N 62°56' E 006°11'4 8.4
2017-Dec-13 01:00N 62°53' E 006°05'4 8.4
2017-Dec-13 00:30N 62°50' E 005°59'4 8.5
2017-Dec-13 00:00N 62°47' E 005°54'4 8.4
2017-Dec-12 23:30N 62°43' E 005°48'4 8.3
2017-Dec-12 23:00N 62°40' E 005°42'4 8.3
2017-Dec-12 22:30N 62°37' E 005°36'4 8.5
2017-Dec-12 22:00N 62°34' E 005°29'4 8.5
2017-Dec-12 21:30N 62°31' E 005°24'4 8.1
2017-Dec-12 21:00N 62°28' E 005°18'4 7.9
2017-Dec-12 20:30N 62°25' E 005°12'4 7.3
2017-Dec-12 20:00N 62°22' E 005°07'4 7.9
2017-Dec-12 19:30N 62°19' E 005°02'4 7.8
2017-Dec-12 19:00N 62°16' E 004°57'4 8.2
2017-Dec-12 18:30N 62°12' E 004°52'4 7.8
2017-Dec-12 18:00N 62°09' E 004°49'4 7.9
2017-Dec-12 17:30N 62°05' E 004°45'4 8.0
2017-Dec-12 17:00N 62°01' E 004°42'4 8.2
2017-Dec-12 16:30N 61°58' E 004°38'4 8.1
2017-Dec-12 16:00N 61°54' E 004°34'4 8.0
2017-Dec-12 15:30N 61°51' E 004°30'4 7.9
2017-Dec-12 15:00N 61°47' E 004°27'4 7.5
2017-Dec-12 14:30N 61°44' E 004°23'41 7.8
2017-Dec-12 09:17N 61°03' E 004°15'2 7.7
2017-Dec-12 08:59N 61°01' E 004°14'  
2017-Dec-09 06:12N 51°22' E 002°02'3 9.5
2017-Dec-09 05:53N 51°20' E 001°59'4 9.4
2017-Dec-09 05:30N 51°17' E 001°55'5 9.4
2017-Dec-09 05:00N 51°14' E 001°50'5 9.4
2017-Dec-09 04:30N 51°10' E 001°45'5 9.6
2017-Dec-09 04:00N 51°07' E 001°41'70 6.5
2017-Dec-08 17:16N 50°33' E 000°04'2 7.9
2017-Dec-08 17:00N 50°35' E 000°01'4 8.1
2017-Dec-08 16:30N 50°38' W 000°03'4 8.4
2017-Dec-08 16:00N 50°41' W 000°07'4 8.6
2017-Dec-08 15:30N 50°44' W 000°11'4 8.5
2017-Dec-08 15:00N 50°48' W 000°15'2 3.6
2017-Dec-08 14:30N 50°50' W 000°14'0 0.8
2017-Dec-08 14:00N 50°50' W 000°14'0 0.0
2017-Dec-08 13:30N 50°50' W 000°14'0 0.0
2017-Dec-08 12:15N 50°50' W 000°14'0 0.0
2017-Dec-08 11:45N 50°50' W 000°14'0 0.0
2017-Dec-07 16:36N 50°50' W 000°14'0 0.0
2017-Dec-07 16:30N 50°50' W 000°14'0 0.0
2017-Dec-07 02:54N 50°50' W 000°14'0 0.0
2017-Dec-07 01:54N 50°50' W 000°14'0 0.0
2017-Dec-07 01:24N 50°50' W 000°14'0 0.0
2017-Dec-06 23:42N 50°50' W 000°14'0 0.0
2017-Dec-06 22:33N 50°50' W 000°14'0 0.0
2017-Dec-06 20:30N 50°50' W 000°14'  
Track history (hours):
 
Tides and Currents Weather Stations Pressure Air Temp Water Temp Dewpoint Dewpoint Depression Visibility Wind Speed Wind Dir Waves Ship Positions

Eems Servant

Last reported at 2017-Dec-15 04:39 UTC. Time now 2017-Dec-17 10:05 UTC.
Position N 61°51' E 004°24'.

Length 87 m; draft 4.4 m.

Type: Cargo ship. MMSI: 246236000.

Date/timePositionNaut miles runAvg speedWind from/ knotsBaromVisibWave heightAir tempDewpointWater temp
2017-Dec-15 04:39N 61°51' E 004°24'1 8.4
2017-Dec-15 04:30N 61°53' E 004°25'4 8.3
2017-Dec-15 04:00N 61°56' E 004°29'13 8.5
2017-Dec-15 02:30N 62°07' E 004°44'13 8.6
2017-Dec-15 01:00N 62°18' E 004°59'4 8.5
2017-Dec-15 00:30N 62°21' E 005°05'51 8.5
2017-Dec-14 18:30N 62°60' E 006°18'4 7.6
2017-Dec-14 17:59N 63°02' E 006°24'4 8.0
2017-Dec-14 17:30N 63°04' E 006°32'4 8.1
2017-Dec-14 17:00N 63°05' E 006°41'4 8.3
2017-Dec-14 16:30N 63°07' E 006°49'4 8.6
2017-Dec-14 16:00N 63°08' E 006°58'9 8.5
2017-Dec-14 15:00N 63°11' E 007°16'4 8.7
2017-Dec-14 14:30N 63°13' E 007°25'4 8.6
2017-Dec-14 14:00N 63°15' E 007°33'4 8.7
2017-Dec-14 13:30N 63°13' E 007°42'4 7.2
2017-Dec-14 13:00N 63°10' E 007°43'5 9.1
2017-Dec-14 12:30N 63°05' E 007°41'5 9.1
2017-Dec-14 12:00N 63°01' E 007°44'4 8.3
2017-Dec-14 11:29N 62°58' E 007°51'5 9.1
2017-Dec-14 11:00N 62°59' E 008°00'5 9.2
2017-Dec-14 10:30N 62°56' E 008°07'4 9.0
2017-Dec-14 10:00N 62°51' E 008°09'5 8.9
2017-Dec-14 09:29N 62°48' E 008°16'5 9.2
2017-Dec-14 09:00N 62°45' E 008°24'4 8.8
2017-Dec-14 08:30N 62°43' E 008°31'2 3.3
2017-Dec-14 07:59N 62°41' E 008°33'0 0.0
2017-Dec-14 07:29N 62°41' E 008°33'0 0.0
2017-Dec-14 06:59N 62°41' E 008°33'0 0.0
2017-Dec-14 06:29N 62°41' E 008°33'0 0.0
2017-Dec-14 05:59N 62°41' E 008°33'0 0.0
2017-Dec-14 05:29N 62°41' E 008°33'0 0.0
2017-Dec-14 04:53N 62°41' E 008°33'0 0.0
2017-Dec-14 04:29N 62°41' E 008°33'0 0.0
2017-Dec-14 03:59N 62°41' E 008°33'0 0.0
2017-Dec-14 03:29N 62°41' E 008°33'0 0.0
2017-Dec-14 02:59N 62°41' E 008°33'0 0.0
2017-Dec-14 02:26N 62°41' E 008°33'0 0.0
2017-Dec-14 01:59N 62°41' E 008°33'0 0.0
2017-Dec-14 01:29N 62°41' E 008°33'0 0.0
2017-Dec-14 00:59N 62°41' E 008°33'0 0.0
2017-Dec-14 00:29N 62°41' E 008°33'0 0.0
2017-Dec-13 23:59N 62°41' E 008°33'0 0.0
2017-Dec-13 23:29N 62°41' E 008°33'0 0.0
2017-Dec-13 22:59N 62°41' E 008°33'0 0.0
2017-Dec-13 22:29N 62°41' E 008°33'0 0.0
2017-Dec-13 21:59N 62°41' E 008°33'0 0.0
2017-Dec-13 21:29N 62°41' E 008°33'0 0.0
2017-Dec-13 20:59N 62°41' E 008°33'0 0.0
2017-Dec-13 20:29N 62°41' E 008°33'0 0.0
2017-Dec-13 19:59N 62°41' E 008°33'0 0.0
2017-Dec-13 19:29N 62°41' E 008°33'0 0.0
2017-Dec-13 18:59N 62°41' E 008°33'0 0.0
2017-Dec-13 18:29N 62°41' E 008°33'0 0.0
2017-Dec-13 17:59N 62°41' E 008°33'0 0.0
2017-Dec-13 17:29N 62°41' E 008°33'0 0.0
2017-Dec-13 16:59N 62°41' E 008°33'0 0.0
2017-Dec-13 16:29N 62°41' E 008°33'0 0.0
2017-Dec-13 15:59N 62°41' E 008°33'0 0.0
2017-Dec-13 15:29N 62°41' E 008°33'0 0.0
2017-Dec-13 14:59N 62°41' E 008°33'0 0.0
2017-Dec-13 14:29N 62°41' E 008°33'0 0.0
2017-Dec-13 13:59N 62°41' E 008°33'0 0.0
2017-Dec-13 13:29N 62°41' E 008°33'0 0.0
2017-Dec-13 12:59N 62°41' E 008°33'0 0.3
2017-Dec-13 12:30N 62°41' E 008°33'4 7.2
2017-Dec-13 12:00N 62°44' E 008°29'5 9.2
2017-Dec-13 11:30N 62°47' E 008°21'5 9.1
2017-Dec-13 11:00N 62°49' E 008°12'5 9.2
2017-Dec-13 10:30N 62°53' E 008°08'4 8.9
2017-Dec-13 10:00N 62°57' E 008°04'4 8.4
2017-Dec-13 09:30N 62°58' E 007°55'4 8.4
2017-Dec-13 09:00N 62°59' E 007°46'5 9.1
2017-Dec-13 08:30N 63°03' E 007°41'5 9.3
2017-Dec-13 08:00N 63°07' E 007°41'4 8.9
2017-Dec-13 07:30N 63°11' E 007°45'3 6.4
2017-Dec-13 07:00N 63°14' E 007°41'4 7.2
2017-Dec-13 06:30N 63°15' E 007°33'4 8.1
2017-Dec-13 06:00N 63°13' E 007°25'4 8.4
2017-Dec-13 05:29N 63°11' E 007°16'4 8.9
2017-Dec-13 05:00N 63°10' E 007°07'4 8.8
2017-Dec-13 04:30N 63°08' E 006°58'4 8.7
2017-Dec-13 04:00N 63°07' E 006°49'4 8.3
2017-Dec-13 03:30N 63°05' E 006°41'4 8.5
2017-Dec-13 03:00N 63°04' E 006°32'4 8.3
2017-Dec-13 02:29N 63°02' E 006°23'4 8.1
2017-Dec-13 02:00N 62°59' E 006°17'4 8.0
2017-Dec-13 01:30N 62°56' E 006°11'4 8.4
2017-Dec-13 01:00N 62°53' E 006°05'4 8.4
2017-Dec-13 00:30N 62°50' E 005°59'4 8.5
2017-Dec-13 00:00N 62°47' E 005°54'4 8.4
2017-Dec-12 23:30N 62°43' E 005°48'4 8.3
2017-Dec-12 23:00N 62°40' E 005°42'4 8.3
2017-Dec-12 22:30N 62°37' E 005°36'4 8.5
2017-Dec-12 22:00N 62°34' E 005°29'4 8.5
2017-Dec-12 21:30N 62°31' E 005°24'4 8.1
2017-Dec-12 21:00N 62°28' E 005°18'4 7.9
2017-Dec-12 20:30N 62°25' E 005°12'4 7.3
2017-Dec-12 20:00N 62°22' E 005°07'4 7.9
2017-Dec-12 19:30N 62°19' E 005°02'4 7.8
2017-Dec-12 19:00N 62°16' E 004°57'4 8.2
2017-Dec-12 18:30N 62°12' E 004°52'4 7.8
2017-Dec-12 18:00N 62°09' E 004°49'4 7.9
2017-Dec-12 17:30N 62°05' E 004°45'4 8.0
2017-Dec-12 17:00N 62°01' E 004°42'4 8.2
2017-Dec-12 16:30N 61°58' E 004°38'4 8.1
2017-Dec-12 16:00N 61°54' E 004°34'4 8.0
2017-Dec-12 15:30N 61°51' E 004°30'4 7.9
2017-Dec-12 15:00N 61°47' E 004°27'4 7.5
2017-Dec-12 14:30N 61°44' E 004°23'41 7.8
2017-Dec-12 09:17N 61°03' E 004°15'2 7.7
2017-Dec-12 08:59N 61°01' E 004°14'  
2017-Dec-09 06:12N 51°22' E 002°02'3 9.5
2017-Dec-09 05:53N 51°20' E 001°59'4 9.4
2017-Dec-09 05:30N 51°17' E 001°55'5 9.4
2017-Dec-09 05:00N 51°14' E 001°50'5 9.4
2017-Dec-09 04:30N 51°10' E 001°45'5 9.6
2017-Dec-09 04:00N 51°07' E 001°41'70 6.5
2017-Dec-08 17:16N 50°33' E 000°04'2 7.9
2017-Dec-08 17:00N 50°35' E 000°01'4 8.1
2017-Dec-08 16:30N 50°38' W 000°03'4 8.4
2017-Dec-08 16:00N 50°41' W 000°07'4 8.6
2017-Dec-08 15:30N 50°44' W 000°11'4 8.5
2017-Dec-08 15:00N 50°48' W 000°15'2 3.6
2017-Dec-08 14:30N 50°50' W 000°14'0 0.8
2017-Dec-08 14:00N 50°50' W 000°14'0 0.0
2017-Dec-08 13:30N 50°50' W 000°14'0 0.0
2017-Dec-08 12:15N 50°50' W 000°14'0 0.0
2017-Dec-08 11:45N 50°50' W 000°14'0 0.0
2017-Dec-07 16:36N 50°50' W 000°14'0 0.0
2017-Dec-07 16:30N 50°50' W 000°14'0 0.0
2017-Dec-07 02:54N 50°50' W 000°14'0 0.0
2017-Dec-07 01:54N 50°50' W 000°14'0 0.0
2017-Dec-07 01:24N 50°50' W 000°14'0 0.0
2017-Dec-06 23:42N 50°50' W 000°14'0 0.0
2017-Dec-06 22:33N 50°50' W 000°14'0 0.0
2017-Dec-06 20:30N 50°50' W 000°14'  

Dump ship's entire track history